KPWC

Details ICAO KPWC
Name PINE RIVER RGNL
Region United States
Timezone America/Chicago (UTC-6.0)
Plans Departing 0
Arriving 0
Stats Elevation 1,295 ft / 395 m (AMSL)
Location 46.724787° -94.381700°
Runways 1
Magnetic Variation 0.950° E
Sunrise 2017-12-12 13:54:43 UTC / 2017-12-12 07:54:43 Local
Sunset 2017-12-12 22:30:54 UTC / 2017-12-12 16:30:54 Local
Advertisement - Login to hide

Runways

ID Width Length Bearing (true) Bearing (mag) Surface Threshold Offset Overrun Length
16 75 ft / 23 m 3,001 ft / 915 m 162.87° 161.92° Asphalt 0 ft / 0 m 0 ft / 0 m
34 75 ft / 23 m 3,001 ft / 915 m 342.87° 341.92° Asphalt 0 ft / 0 m 0 ft / 0 m

Map

Weather


0- 5 10 15 20 25 30 35+ Temperature / ° C

Clouds and Precipitation
Forecast for 2017-12-13 00:00 UTC. Updated 44 minutes ago

Ground ~20,000 ft ~40,000 ft Winds

METAR

KPWC 122155Z AUTO 15007KT 10SM OVC013 M09/M12 A2986 RMK AO2

TAF

Not found

Frequencies

Recorded 118.52 MHz AWOS 3
Unicom 122.90 MHz CTAF
Warning: Do not use this data for real-world aviation or navigation. No guarantee of current accuracy is given.